Time;durP1;ratioP1;P1;durP2;ratioP2;P2;SDS_P1;SDS_P2;PMS_P1;PMS_P2;Temp;Humidity;BMP_temperature;BMP_pressure;BME280_temperature;BME280_humidity;BME280_pressure;Samples;Min_cycle;Max_cycle;Signal;HPM_P1;HPM_P2
2023/03/23 00:02:17;;;;;;;2.10;1.57;;;;;;;;;;5055587;28;20245;-87
2023/03/23 00:04:44;;;;;;;2.10;1.70;;;;;;;;;;5055656;28;20229;-87
2023/03/23 00:07:20;;;;;;;1.70;1.60;;;;;;;;;;5055750;28;20238;-88
2023/03/23 00:09:47;;;;;;;1.47;1.37;;;;;;;;;;5056532;28;20220;-88
2023/03/23 00:12:15;;;;;;;1.83;1.73;;;;;;;;;;5074720;28;20580;-87
2023/03/23 00:14:42;;;;;;;1.77;1.67;;;;;;;;;;5071331;28;20226;-87
2023/03/23 00:17:14;;;;;;;1.47;1.40;;;;;;;;;;5055910;28;20244;-88
2023/03/23 00:19:45;;;;;;;2.70;1.40;;;;;;;;;;5055806;28;20249;-87
2023/03/23 00:22:14;;;;;;;1.83;1.37;;;;;;;;;;5071270;28;20233;-87
2023/03/23 00:24:42;;;;;;;2.20;1.60;;;;;;;;;;5075484;28;20239;-88
2023/03/23 00:27:12;;;;;;;3.30;1.43;;;;;;;;;;5067697;28;20709;-87
2023/03/23 00:29:39;;;;;;;1.60;1.50;;;;;;;;;;5055425;28;20190;-88
2023/03/23 00:32:06;;;;;;;2.00;1.70;;;;;;;;;;5054982;28;20280;-88
2023/03/23 00:34:34;;;;;;;1.47;1.37;;;;;;;;;;5055266;28;20232;-87
2023/03/23 00:37:01;;;;;;;1.40;1.30;;;;;;;;;;5054809;28;20257;-88
2023/03/23 00:39:30;;;;;;;2.93;1.80;;;;;;;;;;5055216;28;20301;-87
2023/03/23 00:42:00;;;;;;;2.47;1.47;;;;;;;;;;5054605;28;20237;-88
2023/03/23 00:44:28;;;;;;;1.50;1.40;;;;;;;;;;5055145;28;20578;-88
2023/03/23 00:46:56;;;;;;;1.53;1.33;;;;;;;;;;5059247;28;20308;-87
2023/03/23 00:49:24;;;;;;;1.33;1.23;;;;;;;;;;5075482;28;20225;-88
2023/03/23 00:51:52;;;;;;;1.63;1.30;;;;;;;;;;5068921;28;20237;-88
2023/03/23 00:54:19;;;;;;;1.50;1.40;;;;;;;;;;5055748;28;20673;-88
2023/03/23 00:56:48;;;;;;;1.20;1.20;;;;;;;;;;5057253;28;20233;-87
2023/03/23 00:59:15;;;;;;;1.50;1.40;;;;;;;;;;5054565;28;20681;-87
2023/03/23 01:01:42;;;;;;;0.90;0.90;;;;;;;;;;5053957;28;20202;-87
2023/03/23 01:04:12;;;;;;;1.20;1.10;;;;;;;;;;5054082;28;20226;-87
2023/03/23 01:06:39;;;;;;;1.50;1.40;;;;;;;;;;5054181;28;20279;-88
2023/03/23 01:09:07;;;;;;;1.53;1.30;;;;;;;;;;5054232;28;20202;-88
2023/03/23 01:11:34;;;;;;;2.13;1.40;;;;;;;;;;5053592;28;20294;-88
2023/03/23 01:14:02;;;;;;;1.27;1.23;;;;;;;;;;5054141;28;20694;-88
2023/03/23 01:16:30;;;;;;;1.83;1.70;;;;;;;;;;5053990;28;20313;-87
2023/03/23 01:18:57;;;;;;;1.60;1.23;;;;;;;;;;5054640;28;20792;-87
2023/03/23 01:21:24;;;;;;;2.00;1.37;;;;;;;;;;5054012;28;20357;-87
2023/03/23 01:23:52;;;;;;;1.17;1.07;;;;;;;;;;5053795;28;20228;-87
2023/03/23 01:26:20;;;;;;;1.37;1.27;;;;;;;;;;5054142;28;20285;-88
2023/03/23 01:28:48;;;;;;;1.30;1.20;;;;;;;;;;5053072;28;20748;-87
2023/03/23 01:31:17;;;;;;;1.50;1.30;;;;;;;;;;5053871;28;20232;-88
2023/03/23 01:33:44;;;;;;;1.60;1.50;;;;;;;;;;5053385;28;20238;-87
2023/03/23 01:36:13;;;;;;;2.33;1.40;;;;;;;;;;5054352;28;20285;-88
2023/03/23 01:38:53;;;;;;;1.60;1.50;;;;;;;;;;5053273;28;20234;-88
2023/03/23 01:41:21;;;;;;;2.03;1.80;;;;;;;;;;5054069;28;20216;-88
2023/03/23 01:43:58;;;;;;;1.70;1.60;;;;;;;;;;5053949;28;20248;-87
2023/03/23 01:46:28;;;;;;;2.63;1.27;;;;;;;;;;5053496;28;20743;-89
2023/03/23 01:48:55;;;;;;;2.13;1.60;;;;;;;;;;5054588;28;20205;-88
2023/03/23 01:51:23;;;;;;;1.10;1.10;;;;;;;;;;5053980;28;20683;-86
2023/03/23 01:53:52;;;;;;;1.30;1.30;;;;;;;;;;5053115;28;20242;-88
2023/03/23 01:56:24;;;;;;;2.57;1.70;;;;;;;;;;5054050;28;20210;-88
2023/03/23 01:58:52;;;;;;;1.90;1.73;;;;;;;;;;5062863;28;20233;-88
2023/03/23 02:01:21;;;;;;;1.70;1.60;;;;;;;;;;5073578;28;20566;-88
2023/03/23 02:03:49;;;;;;;2.53;1.37;;;;;;;;;;5071132;28;20233;-88
2023/03/23 02:06:16;;;;;;;1.53;1.43;;;;;;;;;;5072268;28;20956;-89
2023/03/23 02:08:44;;;;;;;1.33;1.23;;;;;;;;;;5073506;28;20233;-88
2023/03/23 02:11:15;;;;;;;1.20;1.13;;;;;;;;;;5073744;28;20232;-88
2023/03/23 02:13:43;;;;;;;1.33;1.27;;;;;;;;;;5073347;28;20243;-88
2023/03/23 02:16:15;;;;;;;1.67;1.57;;;;;;;;;;5073477;28;20202;-87
2023/03/23 02:18:50;;;;;;;1.23;1.17;;;;;;;;;;5073659;28;20320;-87
2023/03/23 02:21:27;;;;;;;1.57;1.47;;;;;;;;;;5073972;28;20194;-88
2023/03/23 02:24:17;;;;;;;1.40;1.20;;;;;;;;;;5073533;28;20251;-88
2023/03/23 02:26:50;;;;;;;1.40;1.30;;;;;;;;;;5078705;28;20205;-88
2023/03/23 02:29:26;;;;;;;1.50;1.40;;;;;;;;;;5074533;28;20897;-89
2023/03/23 02:32:01;;;;;;;1.80;1.50;;;;;;;;;;5073625;28;20237;-88
2023/03/23 02:34:31;;;;;;;1.10;1.10;;;;;;;;;;5074080;28;20700;-88
2023/03/23 02:37:00;;;;;;;1.50;1.40;;;;;;;;;;5072819;28;20315;-89
2023/03/23 02:39:30;;;;;;;1.33;1.23;;;;;;;;;;5074058;28;20243;-89
2023/03/23 02:42:00;;;;;;;1.50;1.40;;;;;;;;;;5072292;28;20229;-87
2023/03/23 02:44:29;;;;;;;1.40;1.30;;;;;;;;;;5073735;28;20316;-89
2023/03/23 02:46:58;;;;;;;1.40;1.30;;;;;;;;;;5073464;28;20632;-88
2023/03/23 02:49:26;;;;;;;1.63;1.50;;;;;;;;;;5074376;28;20209;-87
2023/03/23 02:51:55;;;;;;;1.50;1.40;;;;;;;;;;5071726;28;20240;-88
2023/03/23 02:54:25;;;;;;;1.30;1.30;;;;;;;;;;5073666;28;20217;-87
2023/03/23 02:56:53;;;;;;;2.00;1.50;;;;;;;;;;5073783;28;20290;-88
2023/03/23 02:59:20;;;;;;;1.50;1.40;;;;;;;;;;5074950;28;20217;-88
2023/03/23 03:01:52;;;;;;;1.40;1.20;;;;;;;;;;5073084;28;20232;-88
2023/03/23 03:06:54;;;;;;;1.57;1.47;;;;;;;;;;5038128;28;20280;-85
2023/03/23 03:09:25;;;;;;;2.03;1.50;;;;;;;;;;5015492;28;20297;-85
2023/03/23 03:11:53;;;;;;;1.60;1.50;;;;;;;;;;5027463;28;20245;-85
2023/03/23 03:14:23;;;;;;;2.83;1.50;;;;;;;;;;5014684;28;20211;-85
2023/03/23 03:16:54;;;;;;;1.70;1.60;;;;;;;;;;5015256;28;20234;-85
2023/03/23 03:19:25;;;;;;;1.50;1.40;;;;;;;;;;5001583;28;20203;-85
2023/03/23 03:21:54;;;;;;;1.93;1.70;;;;;;;;;;5014503;28;20242;-85
2023/03/23 03:24:23;;;;;;;2.97;1.53;;;;;;;;;;5000598;28;20664;-85
2023/03/23 03:26:52;;;;;;;1.47;1.37;;;;;;;;;;5014011;28;20235;-85
2023/03/23 03:29:21;;;;;;;1.23;1.23;;;;;;;;;;5015764;28;20210;-85
2023/03/23 03:31:49;;;;;;;1.70;1.60;;;;;;;;;;4994942;28;20235;-85
2023/03/23 03:34:18;;;;;;;1.20;1.20;;;;;;;;;;5002993;28;20204;-85
2023/03/23 03:36:45;;;;;;;1.60;1.50;;;;;;;;;;5014434;28;20649;-85
2023/03/23 03:39:14;;;;;;;1.73;1.63;;;;;;;;;;5015089;28;20203;-85
2023/03/23 03:41:43;;;;;;;1.20;1.20;;;;;;;;;;5014409;28;20200;-86
2023/03/23 03:44:10;;;;;;;1.23;1.13;;;;;;;;;;5014740;28;20203;-85
2023/03/23 03:46:37;;;;;;;1.50;1.40;;;;;;;;;;5014580;28;20306;-85
2023/03/23 03:49:06;;;;;;;1.60;1.50;;;;;;;;;;5013185;28;20230;-85
2023/03/23 03:51:34;;;;;;;2.13;1.50;;;;;;;;;;5013774;28;20230;-85
2023/03/23 03:54:01;;;;;;;2.17;1.90;;;;;;;;;;5014687;28;20204;-84
2023/03/23 03:56:32;;;;;;;1.80;1.70;;;;;;;;;;5014230;28;20220;-85
2023/03/23 03:59:00;;;;;;;2.07;1.70;;;;;;;;;;5014799;28;20691;-85
2023/03/23 04:01:28;;;;;;;2.00;1.90;;;;;;;;;;5014294;28;20565;-85
2023/03/23 04:03:56;;;;;;;1.60;1.50;;;;;;;;;;5014653;28;20200;-84
2023/03/23 04:06:23;;;;;;;1.70;1.60;;;;;;;;;;5014027;28;20235;-86
2023/03/23 04:08:50;;;;;;;1.80;1.70;;;;;;;;;;4995026;28;20214;-84
2023/03/23 04:11:17;;;;;;;1.73;1.57;;;;;;;;;;4994869;28;20216;-84
2023/03/23 04:13:44;;;;;;;1.87;1.70;;;;;;;;;;4994443;28;20734;-84
2023/03/23 04:16:13;;;;;;;1.70;1.60;;;;;;;;;;5013810;28;20231;-84
2023/03/23 04:18:42;;;;;;;1.87;1.67;;;;;;;;;;5013327;28;20645;-84
2023/03/23 04:21:09;;;;;;;1.60;1.50;;;;;;;;;;5013761;28;20242;-85
2023/03/23 04:23:37;;;;;;;1.77;1.67;;;;;;;;;;5013174;28;20246;-84
2023/03/23 04:26:04;;;;;;;1.60;1.50;;;;;;;;;;5013930;28;20269;-85
2023/03/23 04:28:33;;;;;;;2.40;1.40;;;;;;;;;;5013463;28;20235;-84
2023/03/23 04:31:01;;;;;;;1.60;1.50;;;;;;;;;;5013937;28;20235;-84
2023/03/23 04:33:30;;;;;;;2.37;1.60;;;;;;;;;;5012932;28;20262;-84
2023/03/23 04:35:58;;;;;;;2.43;1.57;;;;;;;;;;5013808;28;20235;-84
2023/03/23 04:38:25;;;;;;;2.00;1.80;;;;;;;;;;5013404;28;20235;-84
2023/03/23 04:40:53;;;;;;;1.57;1.37;;;;;;;;;;5013764;28;20214;-85
2023/03/23 04:43:22;;;;;;;1.50;1.40;;;;;;;;;;5013120;28;20237;-84
2023/03/23 04:45:55;;;;;;;1.80;1.70;;;;;;;;;;5013815;28;20314;-84
2023/03/23 04:48:22;;;;;;;1.77;1.60;;;;;;;;;;5013078;28;20239;-85
2023/03/23 04:50:51;;;;;;;1.90;1.80;;;;;;;;;;5013499;28;20199;-85
2023/03/23 04:53:19;;;;;;;1.70;1.60;;;;;;;;;;5012726;28;20235;-84
2023/03/23 04:55:47;;;;;;;1.50;1.40;;;;;;;;;;5019568;28;20266;-84
2023/03/23 04:58:15;;;;;;;1.43;1.33;;;;;;;;;;5021148;28;20231;-84
2023/03/23 05:00:49;;;;;;;1.87;1.33;;;;;;;;;;5022321;28;20223;-84
2023/03/23 05:03:16;;;;;;;1.30;1.20;;;;;;;;;;5003188;28;20771;-84
2023/03/23 05:05:46;;;;;;;2.20;1.83;;;;;;;;;;5020451;28;20310;-84
2023/03/23 05:08:15;;;;;;;2.03;1.50;;;;;;;;;;5012789;28;20295;-85
2023/03/23 05:10:42;;;;;;;2.73;1.40;;;;;;;;;;5013488;28;20208;-85
2023/03/23 05:13:09;;;;;;;3.20;1.70;;;;;;;;;;5012189;28;20242;-85
2023/03/23 05:15:36;;;;;;;1.93;1.60;;;;;;;;;;4995807;28;20236;-85
2023/03/23 05:18:03;;;;;;;2.10;1.60;;;;;;;;;;4995762;28;20713;-85
2023/03/23 05:20:30;;;;;;;3.40;1.53;;;;;;;;;;5013174;28;20303;-85
2023/03/23 05:22:58;;;;;;;2.23;1.97;;;;;;;;;;5012565;28;20614;-85
2023/03/23 05:25:26;;;;;;;1.67;1.57;;;;;;;;;;5011015;28;20719;-85
2023/03/23 05:27:53;;;;;;;1.67;1.40;;;;;;;;;;5012136;28;20230;-85
2023/03/23 05:30:21;;;;;;;2.07;1.50;;;;;;;;;;5001019;28;20212;-85
2023/03/23 05:32:50;;;;;;;2.90;1.97;;;;;;;;;;4992202;28;20298;-85
2023/03/23 05:35:17;;;;;;;1.83;1.70;;;;;;;;;;5008001;28;20738;-85
2023/03/23 05:37:45;;;;;;;1.73;1.63;;;;;;;;;;4992763;28;20564;-85
2023/03/23 05:40:12;;;;;;;1.60;1.50;;;;;;;;;;4992912;28;20676;-85
2023/03/23 05:42:41;;;;;;;2.07;1.67;;;;;;;;;;4992631;28;20255;-85
2023/03/23 05:45:10;;;;;;;2.93;1.87;;;;;;;;;;5012361;28;20238;-85
2023/03/23 05:47:38;;;;;;;2.33;2.13;;;;;;;;;;5012189;28;20237;-84
2023/03/23 05:50:06;;;;;;;1.97;1.77;;;;;;;;;;5012445;28;20211;-84
2023/03/23 05:52:35;;;;;;;2.23;1.80;;;;;;;;;;5011665;28;20318;-83
2023/03/23 05:55:03;;;;;;;1.90;1.80;;;;;;;;;;5008840;28;20224;-84
2023/03/23 05:57:30;;;;;;;2.00;1.80;;;;;;;;;;5008800;28;20237;-83
2023/03/23 05:59:59;;;;;;;1.77;1.67;;;;;;;;;;5012033;28;20680;-85
2023/03/23 06:02:29;;;;;;;1.97;1.87;;;;;;;;;;5011491;28;20721;-84
2023/03/23 06:04:57;;;;;;;1.80;1.70;;;;;;;;;;5012185;28;20692;-86
2023/03/23 06:07:25;;;;;;;2.40;1.77;;;;;;;;;;5011546;28;20230;-85
2023/03/23 06:09:52;;;;;;;1.63;1.53;;;;;;;;;;5012224;28;20207;-85
2023/03/23 06:12:19;;;;;;;1.97;1.80;;;;;;;;;;5011470;28;20243;-85
2023/03/23 06:14:47;;;;;;;1.37;1.27;;;;;;;;;;5012325;28;20227;-84
2023/03/23 06:17:17;;;;;;;2.27;1.90;;;;;;;;;;5011579;28;20632;-84
2023/03/23 06:19:45;;;;;;;1.60;1.50;;;;;;;;;;5012307;28;20284;-84
2023/03/23 06:22:12;;;;;;;1.70;1.60;;;;;;;;;;5011850;28;20309;-84
2023/03/23 06:24:39;;;;;;;2.13;1.93;;;;;;;;;;5012201;28;20695;-84
2023/03/23 06:27:07;;;;;;;3.20;1.90;;;;;;;;;;5011623;28;20235;-84
2023/03/23 06:29:34;;;;;;;1.90;1.80;;;;;;;;;;5012358;28;20208;-85
2023/03/23 06:32:03;;;;;;;2.00;1.70;;;;;;;;;;5011712;28;20238;-85
2023/03/23 06:34:32;;;;;;;1.70;1.60;;;;;;;;;;5012338;28;20266;-84
2023/03/23 06:37:00;;;;;;;3.37;1.60;;;;;;;;;;5014559;28;20235;-83
2023/03/23 06:39:27;;;;;;;2.27;1.70;;;;;;;;;;5015744;28;20668;-84
2023/03/23 06:41:54;;;;;;;1.30;1.30;;;;;;;;;;5016995;28;20242;-83
2023/03/23 06:44:21;;;;;;;1.53;1.30;;;;;;;;;;5019390;28;20207;-83
2023/03/23 06:46:48;;;;;;;1.80;1.70;;;;;;;;;;5022254;28;20238;-84
2023/03/23 06:49:16;;;;;;;1.80;1.70;;;;;;;;;;5020303;28;20211;-84
2023/03/23 06:51:44;;;;;;;3.10;1.70;;;;;;;;;;5019735;28;20243;-84
2023/03/23 06:54:12;;;;;;;1.93;1.70;;;;;;;;;;5021780;28;20278;-84
2023/03/23 06:56:39;;;;;;;1.30;1.30;;;;;;;;;;5020793;28;20235;-83
2023/03/23 06:59:07;;;;;;;1.80;1.70;;;;;;;;;;5032836;28;20203;-84
2023/03/23 07:01:34;;;;;;;3.00;1.90;;;;;;;;;;5035129;28;20210;-83
2023/03/23 07:04:01;;;;;;;2.87;1.70;;;;;;;;;;5036107;28;20200;-84
2023/03/23 07:06:28;;;;;;;2.10;2.00;;;;;;;;;;5035148;28;20226;-83
2023/03/23 07:08:56;;;;;;;2.20;2.00;;;;;;;;;;5036237;28;20210;-84
2023/03/23 07:11:23;;;;;;;1.90;1.80;;;;;;;;;;5034895;28;20204;-86
2023/03/23 07:13:51;;;;;;;2.10;1.90;;;;;;;;;;5036338;28;20234;-84
2023/03/23 07:16:18;;;;;;;2.03;1.87;;;;;;;;;;5036512;28;20231;-84
2023/03/23 07:18:45;;;;;;;2.53;1.90;;;;;;;;;;5015956;28;20242;-84
2023/03/23 07:21:13;;;;;;;1.57;1.53;;;;;;;;;;5015300;28;20215;-84
2023/03/23 07:23:40;;;;;;;2.13;1.93;;;;;;;;;;5014942;28;20231;-84
2023/03/23 07:26:08;;;;;;;1.90;1.80;;;;;;;;;;5014936;28;20245;-84
2023/03/23 07:28:36;;;;;;;2.10;1.60;;;;;;;;;;5014949;28;20239;-84
2023/03/23 07:31:03;;;;;;;2.03;1.80;;;;;;;;;;5014839;28;20200;-84
2023/03/23 07:33:31;;;;;;;2.00;1.90;;;;;;;;;;5014448;28;20243;-84
2023/03/23 07:36:00;;;;;;;2.07;1.90;;;;;;;;;;4998875;28;20726;-84
2023/03/23 07:38:27;;;;;;;3.03;1.80;;;;;;;;;;5014574;28;20231;-84
2023/03/23 07:40:54;;;;;;;1.70;1.60;;;;;;;;;;5014767;28;20208;-85
2023/03/23 07:43:22;;;;;;;2.33;1.60;;;;;;;;;;5014370;28;20238;-85
2023/03/23 07:45:50;;;;;;;1.97;1.63;;;;;;;;;;5015091;28;20250;-85
2023/03/23 07:48:17;;;;;;;2.33;1.70;;;;;;;;;;5002992;28;20232;-85
2023/03/23 07:50:44;;;;;;;1.60;1.50;;;;;;;;;;4995360;28;20259;-85
2023/03/23 07:53:11;;;;;;;1.77;1.67;;;;;;;;;;4994404;28;20236;-85
2023/03/23 07:55:39;;;;;;;1.57;1.47;;;;;;;;;;4994621;28;20235;-85
2023/03/23 07:58:07;;;;;;;1.53;1.40;;;;;;;;;;4994647;28;20247;-85
2023/03/23 08:00:35;;;;;;;1.80;1.30;;;;;;;;;;4995131;28;20212;-85
2023/03/23 08:03:03;;;;;;;1.80;1.70;;;;;;;;;;4999399;28;20230;-85
2023/03/23 08:05:31;;;;;;;1.67;1.40;;;;;;;;;;5014575;28;20265;-85
2023/03/23 08:07:59;;;;;;;2.63;1.80;;;;;;;;;;5013961;28;20313;-85
2023/03/23 08:10:27;;;;;;;1.10;1.10;;;;;;;;;;5015030;28;20597;-85
2023/03/23 08:12:55;;;;;;;1.87;1.77;;;;;;;;;;5003898;28;20719;-84
2023/03/23 08:15:22;;;;;;;2.20;1.63;;;;;;;;;;4994837;28;20228;-84
2023/03/23 08:17:52;;;;;;;1.13;1.13;;;;;;;;;;4994386;28;20280;-85
2023/03/23 08:20:19;;;;;;;2.03;1.60;;;;;;;;;;4994589;28;20209;-84
2023/03/23 08:22:47;;;;;;;1.60;1.50;;;;;;;;;;4994144;28;20246;-84
2023/03/23 08:25:16;;;;;;;1.70;1.60;;;;;;;;;;4994489;28;20596;-84
2023/03/23 08:27:44;;;;;;;2.23;1.60;;;;;;;;;;4994203;28;20667;-85
2023/03/23 08:30:12;;;;;;;1.80;1.70;;;;;;;;;;4994592;28;20255;-85
2023/03/23 08:32:39;;;;;;;1.47;1.47;;;;;;;;;;4993780;28;20246;-85
2023/03/23 08:35:10;;;;;;;1.43;1.40;;;;;;;;;;4994537;28;20262;-84
2023/03/23 08:37:38;;;;;;;1.57;1.50;;;;;;;;;;4994193;28;20227;-85
2023/03/23 08:40:09;;;;;;;2.37;1.47;;;;;;;;;;4994722;28;20429;-85
2023/03/23 08:42:37;;;;;;;1.33;1.23;;;;;;;;;;4993941;28;20240;-85
2023/03/23 08:45:04;;;;;;;1.33;1.23;;;;;;;;;;4994445;28;20339;-85
2023/03/23 08:47:31;;;;;;;1.63;1.53;;;;;;;;;;4994148;28;20232;-84
2023/03/23 08:49:58;;;;;;;1.57;1.47;;;;;;;;;;4994357;28;20208;-85
2023/03/23 08:52:27;;;;;;;1.43;1.10;;;;;;;;;;4993572;28;20243;-84
2023/03/23 08:54:54;;;;;;;1.30;1.30;;;;;;;;;;5008102;28;20590;-84
2023/03/23 08:57:21;;;;;;;1.30;1.30;;;;;;;;;;5013170;28;20235;-85
2023/03/23 08:59:48;;;;;;;1.47;1.37;;;;;;;;;;5013049;28;20207;-84
2023/03/23 09:02:16;;;;;;;1.70;1.60;;;;;;;;;;4993211;28;20243;-85
2023/03/23 09:04:43;;;;;;;1.57;1.47;;;;;;;;;;4993913;28;20236;-85
2023/03/23 09:07:11;;;;;;;1.60;1.50;;;;;;;;;;5008792;28;20235;-85
2023/03/23 09:09:41;;;;;;;1.60;1.50;;;;;;;;;;5013619;28;20215;-84
2023/03/23 09:12:08;;;;;;;1.60;1.50;;;;;;;;;;4994346;28;20228;-85
2023/03/23 09:14:35;;;;;;;1.60;1.33;;;;;;;;;;4993466;28;20240;-85
2023/03/23 09:17:02;;;;;;;1.30;1.30;;;;;;;;;;4993357;28;20282;-84
2023/03/23 09:19:30;;;;;;;1.50;1.40;;;;;;;;;;4993968;28;20244;-85
2023/03/23 09:21:57;;;;;;;1.37;1.30;;;;;;;;;;4993226;28;20236;-85
2023/03/23 09:24:25;;;;;;;1.40;1.40;;;;;;;;;;5022854;22;20234;-92
2023/03/23 09:26:53;;;;;;;1.20;1.10;;;;;;;;;;5052198;28;20684;-96
2023/03/23 09:29:20;;;;;;;2.07;1.70;;;;;;;;;;5035441;28;20221;-92
2023/03/23 09:31:47;;;;;;;1.77;1.67;;;;;;;;;;5035181;28;20226;-94
2023/03/23 09:34:15;;;;;;;1.70;1.37;;;;;;;;;;5042858;28;20229;-95
2023/03/23 09:36:42;;;;;;;1.97;1.87;;;;;;;;;;5055146;28;20206;-94
2023/03/23 09:39:11;;;;;;;2.00;1.53;;;;;;;;;;5056011;28;20214;-93
2023/03/23 09:41:54;;;;;;;1.77;1.40;;;;;;;;;;5057083;28;20207;-93
2023/03/23 09:44:27;;;;;;;1.37;1.27;;;;;;;;;;5053114;28;20226;-92
2023/03/23 09:46:58;;;;;;;2.57;1.70;;;;;;;;;;5055897;28;20379;-93
2023/03/23 09:49:28;;;;;;;1.70;1.60;;;;;;;;;;5055427;28;20642;-93
2023/03/23 09:51:57;;;;;;;1.73;1.63;;;;;;;;;;5054254;28;20226;-94
2023/03/23 09:54:27;;;;;;;2.07;1.63;;;;;;;;;;5054341;28;20329;-94
2023/03/23 09:56:56;;;;;;;1.50;1.40;;;;;;;;;;5056187;28;20226;-94
2023/03/23 09:59:28;;;;;;;3.50;1.93;;;;;;;;;;5057227;28;20198;-94
2023/03/23 10:01:59;;;;;;;1.63;1.53;;;;;;;;;;5056761;28;20234;-95
2023/03/23 10:04:30;;;;;;;1.00;1.00;;;;;;;;;;5056749;28;20636;-93
2023/03/23 10:07:00;;;;;;;1.63;1.53;;;;;;;;;;5056306;28;20237;-94
2023/03/23 10:09:27;;;;;;;1.57;1.47;;;;;;;;;;5055616;28;20686;-94
2023/03/23 10:12:02;;;;;;;1.53;1.40;;;;;;;;;;5055986;28;20229;-92
2023/03/23 10:14:50;;;;;;;2.30;1.50;;;;;;;;;;5055827;28;20222;-94
2023/03/23 10:17:21;;;;;;;2.17;1.40;;;;;;;;;;5055404;28;20246;-94
2023/03/23 10:19:51;;;;;;;6.57;1.57;;;;;;;;;;5056843;28;20189;-94
2023/03/23 10:22:20;;;;;;;1.67;1.43;;;;;;;;;;5056554;28;20589;-93
2023/03/23 10:24:51;;;;;;;1.73;1.63;;;;;;;;;;5055990;28;20229;-94
2023/03/23 10:27:22;;;;;;;2.00;1.43;;;;;;;;;;5054661;28;20237;-94
2023/03/23 10:29:53;;;;;;;2.00;1.57;;;;;;;;;;5055433;28;20205;-93
2023/03/23 10:32:40;;;;;;;2.83;1.70;;;;;;;;;;5055397;28;20233;-94
2023/03/23 10:35:11;;;;;;;1.50;1.40;;;;;;;;;;5055448;28;20253;-94
2023/03/23 10:37:40;;;;;;;2.67;1.37;;;;;;;;;;5054988;28;20261;-93
2023/03/23 10:40:10;;;;;;;1.00;1.00;;;;;;;;;;5055818;28;20202;-94
2023/03/23 10:42:38;;;;;;;1.53;1.40;;;;;;;;;;5055104;28;20254;-95
2023/03/23 10:45:14;;;;;;;1.73;1.60;;;;;;;;;;5055657;28;20260;-93
2023/03/23 10:47:44;;;;;;;1.40;1.30;;;;;;;;;;5055278;28;20712;-94
2023/03/23 10:50:13;;;;;;;2.30;1.30;;;;;;;;;;5055926;28;20186;-92
2023/03/23 10:52:42;;;;;;;1.50;1.40;;;;;;;;;;5055764;28;20242;-91
2023/03/23 10:55:10;;;;;;;1.30;1.20;;;;;;;;;;5055010;28;20238;-92
2023/03/23 10:57:39;;;;;;;1.20;1.20;;;;;;;;;;5054660;28;20241;-93
2023/03/23 11:00:08;;;;;;;1.30;1.10;;;;;;;;;;5055504;28;20206;-92
2023/03/23 11:02:42;;;;;;;4.87;1.37;;;;;;;;;;5055875;28;20701;-92
2023/03/23 11:05:23;;;;;;;1.40;1.30;;;;;;;;;;5055430;28;20718;-91
2023/03/23 11:07:52;;;;;;;1.70;1.20;;;;;;;;;;5064108;28;20217;-90
2023/03/23 11:10:23;;;;;;;1.10;1.10;;;;;;;;;;5073909;28;20200;-91
2023/03/23 11:12:50;;;;;;;1.13;1.03;;;;;;;;;;5076564;28;20236;-93
2023/03/23 11:15:39;;;;;;;1.13;1.10;;;;;;;;;;5076034;28;20230;-93
2023/03/23 11:18:11;;;;;;;1.83;1.10;;;;;;;;;;5071932;28;20249;-92
2023/03/23 11:20:39;;;;;;;1.23;1.13;;;;;;;;;;5073043;28;20202;-92
2023/03/23 11:23:10;;;;;;;1.13;1.00;;;;;;;;;;5075999;28;20210;-91
2023/03/23 11:25:51;;;;;;;1.47;1.37;;;;;;;;;;5075021;28;20224;-89
2023/03/23 11:28:18;;;;;;;0.90;0.90;;;;;;;;;;5073680;28;20244;-90
2023/03/23 11:30:46;;;;;;;3.30;1.23;;;;;;;;;;5068657;28;20213;-88
2023/03/23 11:33:15;;;;;;;1.33;1.20;;;;;;;;;;5059475;28;20234;-89
2023/03/23 11:35:45;;;;;;;1.30;1.20;;;;;;;;;;5061010;28;20748;-88
2023/03/23 11:38:18;;;;;;;2.20;1.40;;;;;;;;;;5060870;28;20234;-89
2023/03/23 11:40:48;;;;;;;2.70;1.67;;;;;;;;;;5060616;28;20187;-89
2023/03/23 11:43:30;;;;;;;1.90;1.70;;;;;;;;;;5059769;28;20237;-89
2023/03/23 11:46:03;;;;;;;1.73;1.23;;;;;;;;;;5060320;28;20715;-88
2023/03/23 11:48:36;;;;;;;3.60;2.13;;;;;;;;;;5059316;28;20248;-90
2023/03/23 11:51:05;;;;;;;1.60;1.50;;;;;;;;;;5060296;28;20217;-93
2023/03/23 11:53:37;;;;;;;1.73;1.27;;;;;;;;;;5062497;28;20230;-91
2023/03/23 11:56:11;;;;;;;1.10;1.10;;;;;;;;;;5058564;28;20653;-92
2023/03/23 11:58:38;;;;;;;1.67;1.40;;;;;;;;;;5057114;28;20265;-90
2023/03/23 12:01:08;;;;;;;4.03;2.00;;;;;;;;;;5057967;28;20209;-91
2023/03/23 12:03:46;;;;;;;1.63;1.50;;;;;;;;;;5057740;28;20234;-92
2023/03/23 12:06:23;;;;;;;2.13;1.80;;;;;;;;;;5058150;28;20302;-91
2023/03/23 12:08:57;;;;;;;1.30;1.20;;;;;;;;;;5057260;28;20711;-91
2023/03/23 12:11:28;;;;;;;2.53;1.83;;;;;;;;;;5056914;28;20258;-90
2023/03/23 12:14:04;;;;;;;1.00;1.00;;;;;;;;;;5057109;28;20187;-91
2023/03/23 12:16:48;;;;;;;1.40;1.30;;;;;;;;;;5057233;28;20209;-92
2023/03/23 12:19:19;;;;;;;1.13;1.10;;;;;;;;;;5057753;28;20538;-92
2023/03/23 12:21:54;;;;;;;1.70;1.60;;;;;;;;;;5056887;28;20245;-92
2023/03/23 12:24:29;;;;;;;2.10;1.73;;;;;;;;;;5057385;28;20238;-91
2023/03/23 12:26:58;;;;;;;1.50;1.40;;;;;;;;;;5055947;28;20599;-91
2023/03/23 12:29:43;;;;;;;1.70;1.60;;;;;;;;;;5056106;28;20205;-91
2023/03/23 12:32:26;;;;;;;3.80;1.40;;;;;;;;;;5055827;28;20304;-91
2023/03/23 12:34:58;;;;;;;2.33;1.60;;;;;;;;;;5054405;28;20229;-92
2023/03/23 12:37:32;;;;;;;1.77;1.33;;;;;;;;;;5055837;28;20242;-91
2023/03/23 12:40:07;;;;;;;1.30;1.20;;;;;;;;;;5056337;28;20186;-91
2023/03/23 12:42:40;;;;;;;1.23;1.20;;;;;;;;;;5055881;28;20244;-91
2023/03/23 12:45:10;;;;;;;1.50;1.40;;;;;;;;;;5055853;28;20218;-91
2023/03/23 12:47:41;;;;;;;1.50;1.40;;;;;;;;;;5056526;28;20234;-92
2023/03/23 12:50:14;;;;;;;1.73;1.50;;;;;;;;;;5056217;28;20225;-92
2023/03/23 12:52:46;;;;;;;1.33;1.23;;;;;;;;;;5055477;28;20238;-91
2023/03/23 12:55:17;;;;;;;1.40;1.30;;;;;;;;;;5057455;28;20230;-92
2023/03/23 12:57:47;;;;;;;1.30;1.20;;;;;;;;;;5055204;28;20233;-93
2023/03/23 13:00:19;;;;;;;1.87;1.20;;;;;;;;;;5056616;28;20528;-91
2023/03/23 13:02:48;;;;;;;2.23;1.60;;;;;;;;;;5057547;28;20788;-92
2023/03/23 13:05:28;;;;;;;1.20;1.17;;;;;;;;;;5055995;28;20220;-92
2023/03/23 13:07:58;;;;;;;1.40;1.23;;;;;;;;;;5054988;28;20230;-93
2023/03/23 13:10:28;;;;;;;1.10;1.10;;;;;;;;;;5055541;28;20209;-93
2023/03/23 13:12:56;;;;;;;1.27;1.20;;;;;;;;;;5054861;28;20241;-92
2023/03/23 13:15:29;;;;;;;1.37;1.27;;;;;;;;;;5055156;28;20225;-93
2023/03/23 13:18:01;;;;;;;1.33;1.27;;;;;;;;;;5055157;28;20230;-93
2023/03/23 13:20:42;;;;;;;1.43;1.33;;;;;;;;;;5054686;28;20217;-93
2023/03/23 13:23:12;;;;;;;1.23;1.20;;;;;;;;;;5053886;28;20265;-91
2023/03/23 13:25:48;;;;;;;0.70;0.70;;;;;;;;;;5058499;28;20237;-92
2023/03/23 13:28:17;;;;;;;1.20;1.20;;;;;;;;;;5056373;28;20287;-91
2023/03/23 13:30:54;;;;;;;1.10;1.10;;;;;;;;;;5057193;28;20202;-91
2023/03/23 13:33:37;;;;;;;1.10;1.00;;;;;;;;;;5055526;28;20234;-90
2023/03/23 13:36:12;;;;;;;1.40;1.13;;;;;;;;;;5057035;28;20792;-92
2023/03/23 13:38:40;;;;;;;1.40;1.30;;;;;;;;;;5056153;28;20244;-92
2023/03/23 13:41:10;;;;;;;1.10;1.10;;;;;;;;;;5057263;28;20300;-92
2023/03/23 13:43:38;;;;;;;1.10;1.10;;;;;;;;;;5056910;28;20658;-92
2023/03/23 13:46:09;;;;;;;0.93;0.93;;;;;;;;;;5056897;28;20222;-93
2023/03/23 13:48:44;;;;;;;0.90;0.90;;;;;;;;;;5056408;28;20320;-91
2023/03/23 13:51:28;;;;;;;1.77;1.30;;;;;;;;;;5055742;28;20205;-92
2023/03/23 13:54:05;;;;;;;1.10;1.10;;;;;;;;;;5055534;28;20237;-92
2023/03/23 13:56:37;;;;;;;1.00;1.00;;;;;;;;;;5056414;28;20229;-94
2023/03/23 13:59:08;;;;;;;0.90;0.90;;;;;;;;;;5055424;28;20614;-92
2023/03/23 14:01:36;;;;;;;1.10;1.10;;;;;;;;;;5055353;28;20259;-91
2023/03/23 14:04:06;;;;;;;0.80;0.80;;;;;;;;;;5057465;28;20213;-92
2023/03/23 14:06:36;;;;;;;0.90;0.90;;;;;;;;;;5063488;28;20194;-92
2023/03/23 14:09:06;;;;;;;0.83;0.83;;;;;;;;;;5076894;28;20186;-91
2023/03/23 14:11:41;;;;;;;1.03;1.03;;;;;;;;;;5075753;28;20213;-92
2023/03/23 14:14:09;;;;;;;0.90;0.90;;;;;;;;;;5076633;28;20231;-92
2023/03/23 14:16:40;;;;;;;1.27;1.10;;;;;;;;;;5076265;28;20232;-93
2023/03/23 14:19:16;;;;;;;1.00;0.97;;;;;;;;;;5078381;28;20231;-92
2023/03/23 14:21:51;;;;;;;1.40;1.30;;;;;;;;;;5076331;28;20232;-91
2023/03/23 14:24:22;;;;;;;1.40;1.30;;;;;;;;;;5077390;28;20260;-94
2023/03/23 14:26:52;;;;;;;0.90;0.90;;;;;;;;;;5066040;28;20240;-94
2023/03/23 14:29:19;;;;;;;1.23;1.20;;;;;;;;;;5058931;28;20244;-93
2023/03/23 14:31:50;;;;;;;0.80;0.80;;;;;;;;;;5056155;28;20258;-93
2023/03/23 14:34:20;;;;;;;0.80;0.80;;;;;;;;;;5056930;28;20760;-95
2023/03/23 14:36:48;;;;;;;1.30;1.20;;;;;;;;;;5054584;28;20237;-94
2023/03/23 14:39:19;;;;;;;1.67;1.27;;;;;;;;;;5055812;28;20198;-95
2023/03/23 14:41:46;;;;;;;0.83;0.83;;;;;;;;;;5055667;28;20256;-92
2023/03/23 14:44:16;;;;;;;1.20;1.10;;;;;;;;;;5058382;28;20217;-91
2023/03/23 14:46:43;;;;;;;0.87;0.87;;;;;;;;;;5055371;28;20233;-93
2023/03/23 14:49:15;;;;;;;1.00;1.00;;;;;;;;;;5057822;28;20201;-93
2023/03/23 14:51:49;;;;;;;0.97;0.97;;;;;;;;;;5055263;28;20268;-92
2023/03/23 14:54:16;;;;;;;1.00;1.00;;;;;;;;;;5055348;28;20600;-93
2023/03/23 14:56:57;;;;;;;1.10;1.10;;;;;;;;;;5054874;28;20300;-92
2023/03/23 14:59:25;;;;;;;0.80;0.80;;;;;;;;;;5036112;28;20682;-96
2023/03/23 15:01:53;;;;;;;2.20;1.10;;;;;;;;;;5034812;28;20233;-90